createdAt,value
2022-09-28T00:02:16.854Z,100.00
2022-09-28T00:04:47.683Z,100.00
2022-09-28T00:07:18.026Z,100.00
2022-09-28T00:09:48.449Z,100.00
2022-09-28T00:12:19.056Z,100.00
2022-09-28T00:14:49.422Z,100.00
2022-09-28T00:17:22.189Z,100.00
2022-09-28T00:19:52.947Z,100.00
2022-09-28T00:22:23.370Z,100.00
2022-09-28T00:24:53.955Z,100.00
2022-09-28T00:27:24.410Z,100.00
2022-09-28T00:29:55.832Z,100.00
2022-09-28T00:32:26.893Z,100.00
2022-09-28T00:34:57.301Z,100.00
2022-09-28T00:37:27.823Z,100.00
2022-09-28T00:39:58.340Z,100.00
2022-09-28T00:42:30.648Z,100.00
2022-09-28T00:45:01.298Z,100.00
2022-09-28T00:47:49.759Z,100.00
2022-09-28T00:50:25.826Z,100.00
2022-09-28T00:53:00.886Z,100.00
2022-09-28T00:55:39.301Z,100.00
2022-09-28T00:58:12.530Z,100.00
2022-09-28T01:00:43.909Z,100.00
2022-09-28T01:03:14.322Z,100.00
2022-09-28T01:05:46.212Z,100.00
2022-09-28T01:08:19.592Z,100.00
2022-09-28T01:10:50.901Z,100.00
2022-09-28T01:13:25.648Z,100.00
2022-09-28T01:16:08.069Z,100.00
2022-09-28T01:18:46.063Z,100.00
2022-09-28T01:21:20.667Z,100.00
2022-09-28T01:24:22.877Z,100.00
2022-09-28T01:27:03.914Z,100.00
2022-09-28T01:29:47.598Z,100.00
2022-09-28T01:32:26.651Z,100.00
2022-09-28T01:35:03.654Z,100.00
2022-09-28T01:37:43.878Z,100.00
2022-09-28T01:40:17.017Z,100.00
2022-09-28T01:42:56.972Z,100.00
2022-09-28T01:45:32.004Z,100.00
2022-09-28T01:48:07.933Z,100.00
2022-09-28T01:50:43.049Z,100.00
2022-09-28T01:53:19.239Z,100.00
2022-09-28T01:55:55.366Z,100.00
2022-09-28T01:58:33.449Z,100.00
2022-09-28T02:01:09.943Z,100.00
2022-09-28T02:03:46.790Z,100.00
2022-09-28T02:06:26.117Z,100.00
2022-09-28T02:09:01.384Z,100.00
2022-09-28T02:11:43.914Z,100.00
2022-09-28T02:14:16.992Z,100.00
2022-09-28T02:16:51.555Z,100.00
2022-09-28T02:19:27.389Z,100.00
2022-09-28T02:22:03.042Z,100.00
2022-09-28T02:24:39.652Z,100.00
2022-09-28T02:27:17.382Z,100.00
2022-09-28T02:29:49.681Z,100.00
2022-09-28T02:32:22.178Z,100.00
2022-09-28T02:34:52.649Z,100.00
2022-09-28T02:37:23.230Z,100.00
2022-09-28T02:39:53.622Z,100.00
2022-09-28T02:42:30.087Z,100.00
2022-09-28T02:45:16.355Z,100.00
2022-09-28T02:48:04.976Z,100.00
2022-09-28T02:50:49.183Z,100.00
2022-09-28T02:53:52.270Z,100.00
2022-09-28T02:56:51.965Z,100.00
2022-09-28T02:59:37.933Z,100.00
2022-09-28T03:02:19.722Z,100.00
2022-09-28T03:05:03.394Z,100.00
2022-09-28T03:07:41.230Z,100.00
2022-09-28T03:10:18.433Z,100.00
2022-09-28T03:12:50.470Z,100.00
2022-09-28T03:15:26.774Z,100.00
2022-09-28T03:17:58.861Z,100.00
2022-09-28T03:20:31.794Z,100.00
2022-09-28T03:25:53.238Z,100.00
2022-09-28T03:28:24.045Z,100.00
2022-09-28T03:30:55.241Z,100.00
2022-09-28T03:33:26.319Z,100.00
2022-09-28T03:35:56.900Z,100.00
2022-09-28T03:38:27.787Z,100.00
2022-09-28T03:41:00.433Z,100.00
2022-09-28T03:43:34.462Z,100.00
2022-09-28T03:46:05.728Z,100.00
2022-09-28T03:48:42.395Z,100.00
2022-09-28T03:51:15.113Z,100.00
2022-09-28T03:53:46.236Z,100.00
2022-09-28T03:56:17.853Z,100.00
2022-09-28T03:58:48.697Z,100.00
2022-09-28T04:01:19.492Z,100.00
2022-09-28T04:03:54.055Z,100.00
2022-09-28T04:06:25.116Z,100.00
2022-09-28T04:08:55.917Z,100.00
2022-09-28T04:11:26.239Z,100.00
2022-09-28T04:13:56.880Z,100.00
2022-09-28T04:16:27.734Z,100.00
2022-09-28T04:19:17.449Z,100.00
2022-09-28T04:21:53.915Z,100.00
2022-09-28T04:24:24.339Z,100.00
2022-09-28T04:27:15.401Z,100.00
2022-09-28T04:29:45.961Z,100.00
2022-09-28T04:32:17.628Z,100.00
2022-09-28T04:34:47.978Z,100.00
2022-09-28T04:37:18.614Z,100.00
2022-09-28T04:39:49.229Z,100.00
2022-09-28T04:42:22.550Z,100.00
2022-09-28T04:44:53.625Z,100.00
2022-09-28T04:47:24.067Z,100.00
2022-09-28T04:50:16.418Z,100.00
2022-09-28T04:53:06.281Z,100.00
2022-09-28T04:55:35.136Z,100.00
2022-09-28T04:58:06.555Z,100.00
2022-09-28T05:00:35.807Z,100.00
2022-09-28T05:03:15.394Z,100.00
2022-09-28T05:06:05.080Z,100.00
2022-09-28T05:08:47.118Z,100.00
2022-09-28T05:11:19.943Z,100.00
2022-09-28T05:13:50.429Z,100.00
2022-09-28T05:16:21.446Z,100.00
2022-09-28T05:19:15.176Z,100.00
2022-09-28T05:21:48.799Z,100.00
2022-09-28T05:24:19.184Z,100.00
2022-09-28T05:26:54.030Z,100.00
2022-09-28T05:29:24.382Z,100.00
2022-09-28T05:32:13.936Z,100.00
2022-09-28T05:35:02.053Z,100.00
2022-09-28T05:37:42.153Z,100.00
2022-09-28T05:40:13.631Z,100.00
2022-09-28T05:42:44.151Z,100.00
2022-09-28T05:45:16.539Z,100.00
2022-09-28T05:47:48.601Z,100.00
2022-09-28T05:50:22.344Z,100.00
2022-09-28T05:53:02.461Z,100.00
2022-09-28T05:55:33.853Z,100.00
2022-09-28T05:58:05.912Z,100.00
2022-09-28T06:00:37.281Z,100.00
2022-09-28T06:03:09.265Z,100.00
2022-09-28T06:05:41.112Z,100.00
2022-09-28T06:08:11.712Z,100.00
2022-09-28T06:10:46.385Z,100.00
2022-09-28T06:13:17.307Z,100.00
2022-09-28T06:15:47.669Z,100.00
2022-09-28T06:18:18.219Z,100.00
2022-09-28T06:21:10.734Z,100.00
2022-09-28T06:23:49.241Z,100.00
2022-09-28T06:26:22.168Z,100.00
2022-09-28T06:28:55.624Z,100.00
2022-09-28T06:31:26.252Z,100.00
2022-09-28T06:33:59.637Z,100.00
2022-09-28T06:36:32.298Z,100.00
2022-09-28T06:39:05.448Z,100.00
2022-09-28T06:41:37.203Z,100.00
2022-09-28T06:44:17.300Z,100.00
2022-09-28T06:47:06.020Z,100.00
2022-09-28T06:49:55.515Z,100.00
2022-09-28T06:52:44.531Z,100.00
2022-09-28T06:55:28.801Z,100.00
2022-09-28T06:58:03.153Z,100.00
2022-09-28T07:00:35.946Z,100.00
2022-09-28T07:03:08.604Z,100.00
2022-09-28T07:06:00.451Z,100.00
2022-09-28T07:09:24.519Z,100.00
2022-09-28T07:12:25.496Z,100.00
2022-09-28T07:14:58.584Z,100.00
2022-09-28T07:17:39.259Z,100.00
2022-09-28T07:20:19.210Z,100.00
2022-09-28T07:22:56.107Z,100.00
2022-09-28T07:25:30.153Z,100.00
2022-09-28T07:28:31.228Z,100.00
2022-09-28T07:31:21.601Z,100.00
2022-09-28T07:34:01.015Z,100.00
2022-09-28T07:36:36.376Z,100.00
2022-09-28T07:39:07.232Z,100.00
2022-09-28T07:41:39.626Z,100.00
2022-09-28T07:44:10.962Z,100.00
2022-09-28T07:46:43.341Z,100.00
2022-09-28T07:49:22.989Z,100.00
2022-09-28T07:52:18.558Z,100.00
2022-09-28T07:55:13.234Z,100.00
2022-09-28T07:58:02.567Z,100.00
2022-09-28T08:00:52.614Z,100.00
2022-09-28T08:03:23.324Z,100.00
2022-09-28T08:05:58.159Z,100.00
2022-09-28T08:08:30.163Z,99.53
2022-09-28T08:11:01.115Z,98.45
2022-09-28T08:13:52.890Z,97.35
2022-09-28T08:16:47.535Z,98.80
2022-09-28T08:19:51.253Z,98.60
2022-09-28T08:22:22.655Z,98.70
2022-09-28T08:24:55.184Z,97.85
2022-09-28T08:27:25.571Z,98.04
2022-09-28T08:29:56.171Z,97.21
2022-09-28T08:32:50.313Z,94.46
2022-09-28T08:35:42.467Z,93.67
2022-09-28T08:38:23.260Z,94.25
2022-09-28T08:41:39.079Z,92.25
2022-09-28T08:47:56.369Z,89.19
2022-09-28T08:50:39.828Z,88.62
2022-09-28T08:53:36.947Z,88.12
2022-09-28T08:56:16.678Z,89.51
2022-09-28T08:58:53.897Z,89.06
2022-09-28T09:01:27.604Z,90.47
2022-09-28T09:03:59.906Z,90.84
2022-09-28T09:07:08.665Z,91.51
2022-09-28T09:09:57.311Z,90.02
2022-09-28T09:12:41.998Z,86.67
2022-09-28T09:15:34.787Z,85.06
2022-09-28T09:18:23.168Z,88.00
2022-09-28T09:21:41.301Z,89.99
2022-09-28T09:24:27.362Z,91.47
2022-09-28T09:27:06.863Z,90.25
2022-09-28T09:30:00.343Z,89.96
2022-09-28T09:32:52.029Z,89.22
2022-09-28T09:35:47.434Z,89.22
2022-09-28T09:38:47.712Z,89.38
2022-09-28T09:41:50.104Z,89.51
2022-09-28T09:44:43.966Z,90.41
2022-09-28T09:47:32.257Z,90.12
2022-09-28T09:50:16.369Z,89.89
2022-09-28T09:52:57.251Z,89.50
2022-09-28T09:55:32.971Z,89.19
2022-09-28T09:58:33.128Z,88.70
2022-09-28T10:01:24.736Z,86.45
2022-09-28T10:04:22.600Z,88.16
2022-09-28T10:06:58.690Z,87.70
2022-09-28T10:09:35.762Z,85.49
2022-09-28T10:12:24.473Z,87.03
2022-09-28T10:14:56.020Z,86.33
2022-09-28T10:17:27.760Z,85.99
2022-09-28T10:20:18.947Z,85.74
2022-09-28T10:23:24.693Z,85.81
2022-09-28T10:26:00.715Z,85.65
2022-09-28T10:28:40.370Z,85.91
2022-09-28T10:31:38.947Z,84.71
2022-09-28T10:34:17.120Z,83.38
2022-09-28T10:36:58.146Z,81.61
2022-09-28T10:39:37.355Z,82.20
2022-09-28T10:42:11.263Z,81.39
2022-09-28T10:44:53.933Z,81.98
2022-09-28T10:47:36.209Z,81.61
2022-09-28T10:50:23.674Z,79.57
2022-09-28T10:53:13.618Z,75.42
2022-09-28T10:56:07.701Z,74.19
2022-09-28T10:58:42.242Z,73.65
2022-09-28T11:01:21.675Z,74.52
2022-09-28T11:03:57.258Z,73.78
2022-09-28T11:06:31.458Z,70.27
2022-09-28T11:09:04.674Z,69.57
2022-09-28T11:11:43.313Z,67.42
2022-09-28T11:14:28.963Z,66.16
2022-09-28T11:17:25.627Z,66.31
2022-09-28T11:19:58.557Z,65.74
2022-09-28T11:22:48.039Z,67.29
2022-09-28T11:25:30.524Z,65.41
2022-09-28T11:28:04.799Z,65.32
2022-09-28T11:30:40.676Z,67.29
2022-09-28T11:33:31.499Z,68.47
2022-09-28T11:36:39.634Z,67.15
2022-09-28T11:39:20.222Z,66.85
2022-09-28T11:42:03.359Z,66.13
2022-09-28T11:45:00.509Z,66.52
2022-09-28T11:47:58.030Z,62.66
2022-09-28T11:50:38.417Z,60.28
2022-09-28T11:53:22.406Z,59.37
2022-09-28T11:55:59.542Z,59.47
2022-09-28T11:58:36.618Z,59.17
2022-09-28T12:01:22.576Z,56.46
2022-09-28T12:04:20.912Z,56.32
2022-09-28T12:06:57.037Z,54.76
2022-09-28T12:09:36.192Z,56.42
2022-09-28T12:12:25.447Z,56.88
2022-09-28T12:15:03.678Z,57.64
2022-09-28T12:17:44.246Z,57.48
2022-09-28T12:20:21.565Z,60.60
2022-09-28T12:23:02.171Z,60.80
2022-09-28T12:25:43.217Z,60.45
2022-09-28T12:28:26.571Z,60.16
2022-09-28T12:31:03.729Z,60.99
2022-09-28T12:33:35.078Z,62.52
2022-09-28T12:36:08.807Z,63.77
2022-09-28T12:39:18.162Z,64.41
2022-09-28T12:42:07.340Z,64.14
2022-09-28T12:45:01.035Z,65.19
2022-09-28T12:47:57.289Z,65.92
2022-09-28T12:50:38.606Z,66.53
2022-09-28T12:53:26.876Z,63.39
2022-09-28T12:56:03.089Z,63.70
2022-09-28T12:58:55.863Z,63.93
2022-09-28T13:01:47.018Z,64.29
2022-09-28T13:04:51.457Z,62.31
2022-09-28T13:07:30.722Z,63.44
2022-09-28T13:10:18.865Z,63.44
2022-09-28T13:13:05.360Z,62.07
2022-09-28T13:15:47.200Z,62.24
2022-09-28T13:18:27.924Z,60.66
2022-09-28T13:21:10.660Z,58.61
2022-09-28T13:23:44.115Z,54.91
2022-09-28T13:26:27.183Z,52.73
2022-09-28T13:29:04.945Z,49.86
2022-09-28T13:31:40.572Z,50.63
2022-09-28T13:34:20.545Z,50.17
2022-09-28T13:37:11.316Z,49.31
2022-09-28T13:39:52.174Z,47.12
2022-09-28T13:42:35.940Z,45.92
2022-09-28T13:45:28.922Z,47.04
2022-09-28T13:48:12.282Z,47.80
2022-09-28T13:51:09.252Z,48.75
2022-09-28T13:53:55.237Z,50.62
2022-09-28T13:56:37.280Z,51.52
2022-09-28T13:59:20.605Z,53.83
2022-09-28T14:02:06.303Z,51.65
2022-09-28T14:04:59.335Z,51.31
2022-09-28T14:08:10.757Z,51.72
2022-09-28T14:10:52.338Z,50.17
2022-09-28T14:14:00.605Z,51.52
2022-09-28T14:16:32.543Z,51.53
2022-09-28T14:19:08.699Z,52.36
2022-09-28T14:22:06.632Z,51.36
2022-09-28T14:24:54.737Z,51.71
2022-09-28T14:27:49.473Z,52.80
2022-09-28T14:30:25.883Z,53.62
2022-09-28T14:32:59.298Z,52.79
2022-09-28T14:35:40.455Z,53.45
2022-09-28T14:38:37.837Z,54.82
2022-09-28T14:41:15.069Z,54.56
2022-09-28T14:44:09.560Z,54.46
2022-09-28T14:46:44.657Z,54.64
2022-09-28T14:49:50.226Z,54.90
2022-09-28T14:52:45.836Z,55.48
2022-09-28T14:55:25.456Z,57.09
2022-09-28T14:57:59.607Z,56.92
2022-09-28T15:00:32.037Z,56.86
2022-09-28T15:03:10.225Z,57.16
2022-09-28T15:05:48.133Z,58.27
2022-09-28T15:08:22.702Z,58.41
2022-09-28T15:10:53.400Z,58.21
2022-09-28T15:13:27.722Z,58.01
2022-09-28T15:16:09.805Z,58.05
2022-09-28T15:19:01.507Z,58.52
2022-09-28T15:21:37.610Z,58.42
2022-09-28T15:24:28.968Z,59.00
2022-09-28T15:27:00.210Z,58.80
2022-09-28T15:29:33.206Z,58.80
2022-09-28T15:32:04.704Z,59.20
2022-09-28T15:34:52.465Z,58.68
2022-09-28T15:37:25.928Z,57.23
2022-09-28T15:39:59.215Z,57.70
2022-09-28T15:42:36.141Z,59.59
2022-09-28T15:45:23.079Z,59.99
2022-09-28T15:47:56.090Z,60.28
2022-09-28T15:50:29.760Z,59.70
2022-09-28T15:53:04.129Z,60.79
2022-09-28T15:55:46.286Z,60.58
2022-09-28T15:58:21.130Z,60.76
2022-09-28T16:01:13.094Z,60.85
2022-09-28T16:03:43.702Z,61.69
2022-09-28T16:06:14.294Z,61.51
2022-09-28T16:08:48.478Z,62.40
2022-09-28T16:11:24.110Z,62.22
2022-09-28T16:14:06.076Z,63.75
2022-09-28T16:16:46.689Z,65.13
2022-09-28T16:19:25.208Z,66.11
2022-09-28T16:21:58.920Z,67.12
2022-09-28T16:24:32.804Z,68.92
2022-09-28T16:27:05.669Z,69.77
2022-09-28T16:29:40.778Z,70.65
2022-09-28T16:32:41.719Z,71.53
2022-09-28T16:35:22.294Z,72.51
2022-09-28T16:38:00.342Z,73.47
2022-09-28T16:40:32.279Z,74.31
2022-09-28T16:43:06.298Z,75.38
2022-09-28T16:45:38.732Z,75.83
2022-09-28T16:48:10.828Z,76.71
2022-09-28T16:50:41.617Z,77.28
2022-09-28T16:53:33.807Z,78.26
2022-09-28T16:56:05.566Z,79.42
2022-09-28T16:58:36.577Z,80.58
2022-09-28T17:01:08.664Z,81.41
2022-09-28T17:03:42.217Z,82.22
2022-09-28T17:06:13.697Z,82.86
2022-09-28T17:08:45.414Z,83.29
2022-09-28T17:11:23.760Z,84.14
2022-09-28T17:13:58.985Z,84.89
2022-09-28T17:16:59.944Z,86.23
2022-09-28T17:19:27.371Z,87.45
2022-09-28T17:21:57.854Z,88.03
2022-09-28T17:24:28.439Z,88.78
2022-09-28T17:27:00.723Z,88.82
2022-09-28T17:29:32.554Z,90.15
2022-09-28T17:32:04.922Z,89.94
2022-09-28T17:34:35.644Z,90.27
2022-09-28T17:37:06.138Z,91.23
2022-09-28T17:39:36.529Z,90.73
2022-09-28T17:42:07.135Z,91.34
2022-09-28T17:44:37.622Z,91.50
2022-09-28T17:47:08.124Z,92.10
2022-09-28T17:49:38.830Z,91.49
2022-09-28T17:52:09.652Z,92.81
2022-09-28T17:54:40.065Z,92.87
2022-09-28T17:57:11.407Z,93.13
2022-09-28T17:59:40.382Z,93.38
2022-09-28T18:02:13.557Z,93.68
2022-09-28T18:04:52.612Z,93.97
2022-09-28T18:07:23.287Z,94.04
2022-09-28T18:09:58.217Z,93.57
2022-09-28T18:12:28.659Z,94.30
2022-09-28T18:14:59.124Z,94.18
2022-09-28T18:17:29.719Z,94.03
2022-09-28T18:20:00.166Z,94.34
2022-09-28T18:22:31.020Z,93.86
2022-09-28T18:25:01.518Z,93.94
2022-09-28T18:27:34.069Z,94.44
2022-09-28T18:30:05.138Z,94.86
2022-09-28T18:32:37.842Z,94.93
2022-09-28T18:35:11.469Z,95.45
2022-09-28T18:37:42.887Z,95.90
2022-09-28T18:40:15.445Z,95.73
2022-09-28T18:42:51.025Z,96.20
2022-09-28T18:45:21.805Z,97.20
2022-09-28T18:47:52.277Z,97.13
2022-09-28T18:50:23.003Z,97.57
2022-09-28T18:52:53.433Z,98.08
2022-09-28T18:55:23.973Z,98.15
2022-09-28T18:57:54.575Z,98.41
2022-09-28T19:00:25.383Z,98.93
2022-09-28T19:02:56.097Z,99.39
2022-09-28T19:05:28.362Z,99.39
2022-09-28T19:08:01.758Z,99.26
2022-09-28T19:10:32.294Z,99.61
2022-09-28T19:13:02.701Z,99.77
2022-09-28T19:15:34.968Z,99.91
2022-09-28T19:18:09.489Z,99.99
2022-09-28T19:20:42.146Z,100.00
2022-09-28T19:23:12.761Z,100.00
2022-09-28T19:25:43.252Z,100.00
2022-09-28T19:28:13.841Z,100.00
2022-09-28T19:30:44.873Z,100.00
2022-09-28T19:33:17.541Z,100.00
2022-09-28T19:35:57.520Z,100.00
2022-09-28T19:38:31.110Z,100.00
2022-09-28T19:41:02.853Z,100.00
2022-09-28T19:43:34.893Z,100.00
2022-09-28T19:46:08.357Z,100.00
2022-09-28T19:48:39.552Z,100.00
2022-09-28T19:51:10.733Z,100.00
2022-09-28T19:53:43.411Z,100.00
2022-09-28T19:56:14.328Z,100.00
2022-09-28T19:58:44.821Z,100.00
2022-09-28T20:01:15.751Z,100.00
2022-09-28T20:03:46.480Z,100.00
2022-09-28T20:06:17.527Z,100.00
2022-09-28T20:08:48.276Z,100.00
2022-09-28T20:11:22.004Z,100.00
2022-09-28T20:13:55.288Z,100.00
2022-09-28T20:16:25.931Z,100.00
2022-09-28T20:19:03.041Z,100.00
2022-09-28T20:21:33.853Z,100.00
2022-09-28T20:24:05.687Z,100.00
2022-09-28T20:26:37.881Z,100.00
2022-09-28T20:29:09.140Z,100.00
2022-09-28T20:31:40.296Z,100.00
2022-09-28T20:34:13.039Z,100.00
2022-09-28T20:36:44.586Z,100.00
2022-09-28T20:39:15.977Z,100.00
2022-09-28T20:41:47.246Z,100.00
2022-09-28T20:44:21.071Z,100.00
2022-09-28T20:46:53.826Z,100.00
2022-09-28T20:49:24.451Z,99.94
2022-09-28T20:51:55.139Z,99.96
2022-09-28T20:54:25.732Z,99.88
2022-09-28T20:56:56.261Z,99.99
2022-09-28T20:59:27.703Z,99.95
2022-09-28T21:01:56.806Z,99.82
2022-09-28T21:04:27.472Z,99.93
2022-09-28T21:06:57.900Z,99.95
2022-09-28T21:09:30.201Z,99.80
2022-09-28T21:12:00.782Z,99.76
2022-09-28T21:14:31.574Z,99.87
2022-09-28T21:17:02.118Z,99.81
2022-09-28T21:19:32.532Z,99.66
2022-09-28T21:22:03.085Z,99.76
2022-09-28T21:24:33.568Z,100.00
2022-09-28T21:27:06.398Z,99.89
2022-09-28T21:29:36.950Z,99.90
2022-09-28T21:32:08.199Z,100.00
2022-09-28T21:34:38.766Z,99.89
2022-09-28T21:37:09.119Z,99.98
2022-09-28T21:39:39.919Z,99.88
2022-09-28T21:42:10.523Z,99.92
2022-09-28T21:44:41.096Z,100.00
2022-09-28T21:47:11.424Z,99.99
2022-09-28T21:49:41.843Z,99.91
2022-09-28T21:52:12.868Z,100.00
2022-09-28T21:54:43.246Z,100.00
2022-09-28T21:57:13.622Z,100.00
2022-09-28T21:59:44.174Z,100.00
2022-09-28T22:02:14.531Z,100.00
2022-09-28T22:04:45.147Z,100.00
2022-09-28T22:07:15.498Z,100.00
2022-09-28T22:09:47.776Z,100.00
2022-09-28T22:12:20.974Z,100.00
2022-09-28T22:14:51.647Z,100.00
2022-09-28T22:17:22.133Z,100.00
2022-09-28T22:19:57.675Z,100.00
2022-09-28T22:22:29.272Z,100.00
2022-09-28T22:25:00.830Z,100.00
2022-09-28T22:27:32.835Z,100.00
2022-09-28T22:30:03.305Z,100.00
2022-09-28T22:32:33.740Z,100.00
2022-09-28T22:35:04.451Z,100.00
2022-09-28T22:37:34.966Z,100.00
2022-09-28T22:40:06.454Z,100.00
2022-09-28T22:42:38.119Z,100.00
2022-09-28T22:45:09.905Z,100.00
2022-09-28T22:47:40.468Z,100.00
2022-09-28T22:50:11.395Z,100.00
2022-09-28T22:52:41.890Z,100.00
2022-09-28T22:55:13.936Z,100.00
2022-09-28T22:57:44.367Z,100.00
2022-09-28T23:00:16.241Z,100.00
2022-09-28T23:02:46.903Z,100.00
2022-09-28T23:05:18.481Z,100.00
2022-09-28T23:07:48.894Z,100.00
2022-09-28T23:10:19.454Z,100.00
2022-09-28T23:12:49.925Z,100.00
2022-09-28T23:15:21.527Z,100.00
2022-09-28T23:17:54.937Z,100.00
2022-09-28T23:20:25.880Z,100.00
2022-09-28T23:22:56.601Z,100.00
2022-09-28T23:25:27.107Z,100.00
2022-09-28T23:27:57.524Z,100.00
2022-09-28T23:30:28.112Z,100.00
2022-09-28T23:33:01.274Z,100.00
2022-09-28T23:35:31.746Z,100.00
2022-09-28T23:38:02.333Z,100.00
2022-09-28T23:40:32.824Z,100.00
2022-09-28T23:43:03.400Z,100.00
2022-09-28T23:45:33.829Z,100.00
2022-09-28T23:48:04.819Z,100.00
2022-09-28T23:50:35.419Z,100.00
2022-09-28T23:53:06.600Z,100.00
2022-09-28T23:55:37.098Z,100.00
2022-09-28T23:58:07.544Z,100.00
